createdAt,value
2022-11-04T00:02:07.268Z,10.55
2022-11-04T00:04:34.021Z,10.60
2022-11-04T00:07:00.771Z,10.56
2022-11-04T00:09:30.206Z,10.69
2022-11-04T00:12:16.866Z,10.74
2022-11-04T00:14:43.952Z,10.30
2022-11-04T00:17:19.987Z,9.98
2022-11-04T00:20:08.684Z,10.07
2022-11-04T00:22:54.557Z,10.01
2022-11-04T00:28:29.581Z,10.00
2022-11-04T00:30:58.279Z,9.96
2022-11-04T00:33:28.098Z,9.98
2022-11-04T00:35:57.257Z,10.16
2022-11-04T00:38:25.489Z,9.88
2022-11-04T00:40:52.484Z,10.05
2022-11-04T00:43:19.147Z,10.13
2022-11-04T00:45:46.141Z,9.91
2022-11-04T00:48:13.058Z,9.86
2022-11-04T00:50:39.960Z,9.89
2022-11-04T00:53:07.001Z,9.80
2022-11-04T00:55:33.937Z,9.82
2022-11-04T00:58:00.728Z,9.84
2022-11-04T01:00:27.435Z,9.85
2022-11-04T01:02:54.191Z,9.80
2022-11-04T01:05:20.945Z,9.61
2022-11-04T01:07:47.678Z,9.71
2022-11-04T01:10:14.294Z,9.80
2022-11-04T01:12:40.961Z,9.72
2022-11-04T01:15:07.943Z,9.74
2022-11-04T01:17:34.557Z,9.71
2022-11-04T01:20:01.192Z,9.97
2022-11-04T01:22:27.825Z,9.74
2022-11-04T01:24:54.422Z,9.44
2022-11-04T01:27:21.054Z,9.64
2022-11-04T01:29:47.740Z,9.73
2022-11-04T01:32:14.372Z,9.63
2022-11-04T01:34:43.459Z,9.32
2022-11-04T01:37:10.594Z,9.08
2022-11-04T01:39:37.237Z,8.91
2022-11-04T01:44:42.643Z,9.18
2022-11-04T01:47:30.927Z,9.11
2022-11-04T01:50:03.507Z,8.89
2022-11-04T01:52:45.131Z,8.92
2022-11-04T01:55:16.463Z,8.94
2022-11-04T01:57:47.536Z,8.79
2022-11-04T02:00:15.220Z,8.58
2022-11-04T02:02:59.545Z,8.61
2022-11-04T02:05:27.444Z,8.78
2022-11-04T02:07:57.902Z,8.58
2022-11-04T02:10:30.438Z,8.59
2022-11-04T02:12:59.729Z,8.72
2022-11-04T02:15:35.607Z,8.91
2022-11-04T02:18:25.344Z,8.68
2022-11-04T02:21:10.149Z,8.50
2022-11-04T02:24:09.160Z,8.38
2022-11-04T02:26:50.690Z,8.29
2022-11-04T02:29:31.119Z,8.25
2022-11-04T02:32:20.166Z,8.26
2022-11-04T02:35:07.011Z,8.32
2022-11-04T02:40:29.536Z,8.06
2022-11-04T02:43:22.424Z,8.03
2022-11-04T02:45:59.559Z,8.33
2022-11-04T02:49:09.935Z,8.37
2022-11-04T02:51:53.656Z,8.18
2022-11-04T02:54:24.401Z,8.06
2022-11-04T02:56:53.724Z,8.05
2022-11-04T02:59:28.218Z,8.09
2022-11-04T03:01:56.687Z,8.26
2022-11-04T03:04:30.924Z,8.31
2022-11-04T03:07:01.529Z,8.46
2022-11-04T03:09:31.200Z,8.59
2022-11-04T03:12:09.405Z,8.41
2022-11-04T03:14:47.667Z,8.09
2022-11-04T03:17:39.784Z,8.05
2022-11-04T03:20:16.631Z,8.04
2022-11-04T03:22:43.388Z,7.97
2022-11-04T03:25:10.695Z,8.06
2022-11-04T03:28:11.342Z,8.15
2022-11-04T03:30:43.358Z,8.18
2022-11-04T03:33:25.709Z,8.07
2022-11-04T03:35:52.993Z,7.84
2022-11-04T03:38:22.611Z,7.95
2022-11-04T03:40:50.057Z,7.83
2022-11-04T03:43:24.029Z,7.60
2022-11-04T03:45:51.788Z,7.41
2022-11-04T03:48:18.988Z,7.28
2022-11-04T03:50:48.218Z,7.18
2022-11-04T03:53:21.886Z,7.11
2022-11-04T03:56:23.227Z,7.21
2022-11-04T03:59:20.900Z,7.09
2022-11-04T04:02:00.760Z,6.86
2022-11-04T04:04:29.432Z,6.92
2022-11-04T04:07:17.691Z,6.89
2022-11-04T04:09:51.776Z,6.90
2022-11-04T04:12:38.048Z,7.27
2022-11-04T04:15:21.974Z,7.54
2022-11-04T04:18:12.637Z,7.36
2022-11-04T04:20:42.455Z,7.44
2022-11-04T04:23:34.508Z,7.41
2022-11-04T04:26:23.883Z,7.70
2022-11-04T04:28:53.193Z,7.62
2022-11-04T04:31:39.440Z,7.65
2022-11-04T04:34:07.379Z,7.45
2022-11-04T04:36:44.075Z,7.55
2022-11-04T04:39:31.405Z,7.52
2022-11-04T04:42:17.456Z,7.37
2022-11-04T04:45:02.860Z,7.32
2022-11-04T04:47:40.578Z,7.31
2022-11-04T04:50:07.730Z,7.31
2022-11-04T04:52:38.838Z,7.31
2022-11-04T04:55:06.481Z,7.32
2022-11-04T04:57:33.149Z,7.33
2022-11-04T04:59:59.788Z,7.51
2022-11-04T05:02:26.701Z,7.57
2022-11-04T05:04:53.432Z,7.46
2022-11-04T05:07:20.071Z,7.58
2022-11-04T05:09:46.699Z,7.36
2022-11-04T05:12:13.613Z,7.50
2022-11-04T05:14:40.736Z,7.85
2022-11-04T05:17:07.402Z,7.71
2022-11-04T05:19:34.019Z,7.55
2022-11-04T05:22:00.661Z,7.48
2022-11-04T05:24:27.618Z,7.36
2022-11-04T05:26:54.369Z,7.60
2022-11-04T05:29:21.171Z,7.43
2022-11-04T05:31:48.011Z,7.46
2022-11-04T05:34:15.159Z,7.69
2022-11-04T05:36:41.836Z,7.73
2022-11-04T05:39:08.524Z,7.99
2022-11-04T05:41:35.502Z,8.23
2022-11-04T05:44:03.962Z,8.41
2022-11-04T05:46:31.267Z,8.71
2022-11-04T05:48:58.019Z,8.80
2022-11-04T05:51:27.280Z,8.75
2022-11-04T05:53:54.324Z,8.79
2022-11-04T05:56:21.180Z,8.61
2022-11-04T05:58:47.835Z,8.55
2022-11-04T06:01:39.019Z,8.45
2022-11-04T06:04:07.213Z,8.39
2022-11-04T06:06:36.461Z,8.52
2022-11-04T06:09:03.975Z,8.77
2022-11-04T06:11:31.906Z,8.58
2022-11-04T06:13:59.004Z,8.60
2022-11-04T06:16:26.076Z,8.53
2022-11-04T06:18:53.491Z,8.82
2022-11-04T06:21:26.588Z,9.25
2022-11-04T06:23:55.586Z,9.06
2022-11-04T06:26:25.358Z,8.87
2022-11-04T06:28:55.175Z,8.95
2022-11-04T06:31:22.215Z,8.65
2022-11-04T06:33:48.886Z,8.71
2022-11-04T06:36:16.654Z,9.39
2022-11-04T06:38:43.465Z,9.32
2022-11-04T06:41:17.008Z,9.86
2022-11-04T06:43:43.760Z,9.86
2022-11-04T06:46:36.158Z,10.25
2022-11-04T06:49:03.304Z,11.17
2022-11-04T06:51:30.626Z,11.03
2022-11-04T06:53:57.322Z,11.33
2022-11-04T06:56:23.972Z,12.09
2022-11-04T06:58:52.155Z,11.92
2022-11-04T07:01:22.175Z,12.64
2022-11-04T07:03:50.533Z,12.61
2022-11-04T07:06:17.566Z,13.18
2022-11-04T07:08:44.269Z,13.44
2022-11-04T07:11:11.036Z,13.47
2022-11-04T07:13:37.781Z,13.95
2022-11-04T07:16:06.340Z,13.49
2022-11-04T07:18:33.507Z,14.59
2022-11-04T07:21:02.543Z,15.02
2022-11-04T07:23:32.381Z,14.77
2022-11-04T07:26:03.575Z,14.97
2022-11-04T07:28:30.312Z,14.52
2022-11-04T07:31:02.236Z,14.95
2022-11-04T07:33:28.954Z,15.15
2022-11-04T07:35:58.306Z,14.60
2022-11-04T07:38:25.606Z,15.44
2022-11-04T07:40:52.226Z,16.09
2022-11-04T07:43:18.885Z,16.18
2022-11-04T07:45:45.581Z,16.60
2022-11-04T07:48:12.521Z,16.08
2022-11-04T07:50:40.748Z,16.38
2022-11-04T07:53:08.065Z,16.45
2022-11-04T07:55:43.106Z,16.78
2022-11-04T07:58:10.196Z,16.77
2022-11-04T08:00:36.820Z,16.74
2022-11-04T08:03:03.629Z,17.26
2022-11-04T08:05:30.363Z,17.20
2022-11-04T08:07:57.937Z,17.18
2022-11-04T08:10:24.627Z,17.67
2022-11-04T08:12:52.427Z,18.12
2022-11-04T08:15:19.108Z,18.36
2022-11-04T08:17:45.743Z,18.20
2022-11-04T08:20:14.052Z,18.36
2022-11-04T08:22:40.858Z,18.51
2022-11-04T08:25:07.741Z,18.41
2022-11-04T08:27:34.883Z,18.63
2022-11-04T08:30:01.481Z,19.06
2022-11-04T08:32:28.184Z,19.25
2022-11-04T08:34:54.900Z,19.26
2022-11-04T08:37:21.523Z,19.13
2022-11-04T08:39:48.235Z,19.25
2022-11-04T08:42:15.332Z,19.77
2022-11-04T08:44:42.923Z,19.58
2022-11-04T08:47:09.615Z,19.36
2022-11-04T08:49:40.094Z,19.39
2022-11-04T08:52:06.827Z,19.03
2022-11-04T08:54:34.151Z,18.25
2022-11-04T08:57:00.799Z,18.48
2022-11-04T08:59:27.426Z,18.24
2022-11-04T09:01:54.173Z,18.42
2022-11-04T09:04:21.158Z,19.18
2022-11-04T09:06:48.653Z,18.90
2022-11-04T09:09:17.117Z,19.31
2022-11-04T09:11:45.879Z,18.76
2022-11-04T09:14:13.670Z,19.57
2022-11-04T09:16:41.512Z,19.49
2022-11-04T09:19:08.691Z,19.39
2022-11-04T09:21:35.346Z,19.90
2022-11-04T09:24:02.000Z,19.60
2022-11-04T09:26:28.729Z,19.34
2022-11-04T09:28:56.842Z,19.73
2022-11-04T09:31:24.906Z,19.81
2022-11-04T09:33:51.778Z,19.57
2022-11-04T09:36:18.455Z,19.48
2022-11-04T09:38:45.255Z,20.23
2022-11-04T09:41:34.802Z,19.74
2022-11-04T09:44:23.753Z,20.19
2022-11-04T09:46:55.462Z,20.42
2022-11-04T09:49:24.117Z,20.56
2022-11-04T09:51:54.758Z,20.57
2022-11-04T09:54:47.328Z,21.12
2022-11-04T09:57:18.375Z,20.73
2022-11-04T09:59:46.620Z,21.21
2022-11-04T10:02:35.069Z,20.35
2022-11-04T10:05:02.717Z,20.70
2022-11-04T10:07:33.434Z,20.30
2022-11-04T10:10:08.943Z,19.91
2022-11-04T10:13:02.146Z,19.81
2022-11-04T10:15:56.833Z,20.30
2022-11-04T10:19:00.844Z,20.79
2022-11-04T10:21:30.252Z,21.41
2022-11-04T10:24:15.320Z,21.00
2022-11-04T10:26:46.144Z,20.33
2022-11-04T10:29:37.449Z,20.47
2022-11-04T10:32:22.292Z,21.41
2022-11-04T10:35:04.563Z,21.09
2022-11-04T10:37:31.470Z,20.87
2022-11-04T10:40:26.085Z,20.03
2022-11-04T10:42:54.206Z,20.83
2022-11-04T10:45:27.111Z,20.77
2022-11-04T10:48:03.760Z,21.63
2022-11-04T10:50:52.923Z,21.79
2022-11-04T10:53:23.871Z,21.98
2022-11-04T10:56:05.991Z,21.58
2022-11-04T10:58:36.760Z,21.04
2022-11-04T11:01:26.596Z,21.39
2022-11-04T11:03:54.411Z,21.36
2022-11-04T11:06:35.733Z,22.04
2022-11-04T11:09:13.745Z,21.68
2022-11-04T11:11:47.337Z,22.06
2022-11-04T11:14:29.509Z,21.08
2022-11-04T11:16:57.736Z,20.96
2022-11-04T11:19:25.611Z,22.34
2022-11-04T11:21:55.663Z,22.81
2022-11-04T11:24:27.700Z,22.28
2022-11-04T11:26:57.408Z,22.58
2022-11-04T11:29:27.273Z,22.04
2022-11-04T11:31:56.568Z,21.09
2022-11-04T11:34:31.414Z,21.31
2022-11-04T11:36:59.281Z,21.66
2022-11-04T11:39:28.861Z,21.50
2022-11-04T11:42:07.011Z,21.81
2022-11-04T11:44:44.317Z,22.30
2022-11-04T11:47:42.418Z,22.84
2022-11-04T11:50:20.961Z,22.42
2022-11-04T11:52:49.480Z,22.74
2022-11-04T11:55:23.872Z,22.71
2022-11-04T12:01:02.033Z,22.63
2022-11-04T12:06:33.334Z,22.72
2022-11-04T12:09:15.486Z,22.78
2022-11-04T12:12:10.341Z,22.72
2022-11-04T12:14:55.311Z,22.90
2022-11-04T12:17:44.413Z,22.03
2022-11-04T12:20:33.265Z,21.68
2022-11-04T12:23:18.688Z,21.94
2022-11-04T12:26:01.802Z,22.51
2022-11-04T12:28:54.750Z,22.60
2022-11-04T12:31:27.529Z,22.53
2022-11-04T12:34:00.333Z,22.57
2022-11-04T12:37:07.014Z,22.73
2022-11-04T12:39:55.364Z,22.81
2022-11-04T12:42:24.562Z,22.59
2022-11-04T12:45:18.416Z,22.95
2022-11-04T12:47:47.633Z,22.96
2022-11-04T12:50:32.393Z,23.35
2022-11-04T12:53:11.234Z,23.06
2022-11-04T12:55:44.289Z,22.85
2022-11-04T12:58:55.913Z,22.74
2022-11-04T13:01:38.779Z,22.52
2022-11-04T13:04:17.294Z,22.48
2022-11-04T13:06:52.352Z,22.01
2022-11-04T13:09:30.860Z,21.35
2022-11-04T13:12:16.397Z,21.19
2022-11-04T13:15:02.588Z,21.09
2022-11-04T13:17:33.602Z,20.90
2022-11-04T13:20:26.658Z,20.90
2022-11-04T13:23:02.831Z,21.43
2022-11-04T13:25:29.873Z,21.42
2022-11-04T13:27:58.596Z,21.36
2022-11-04T13:30:40.817Z,21.03
2022-11-04T13:33:40.745Z,20.58
2022-11-04T13:36:41.305Z,20.33
2022-11-04T13:39:33.200Z,20.32
2022-11-04T13:42:26.219Z,20.84
2022-11-04T13:44:58.010Z,20.52
2022-11-04T13:47:32.514Z,20.19
2022-11-04T13:49:59.655Z,20.24
2022-11-04T13:52:31.234Z,20.15
2022-11-04T13:55:02.854Z,20.13
2022-11-04T13:57:31.864Z,20.04
2022-11-04T14:00:25.742Z,20.04
2022-11-04T14:02:54.735Z,20.13
2022-11-04T14:05:27.491Z,20.21
2022-11-04T14:08:02.953Z,20.20
2022-11-04T14:10:48.376Z,20.01
2022-11-04T14:13:30.438Z,19.88
2022-11-04T14:16:06.548Z,19.81
2022-11-04T14:18:35.935Z,19.83
2022-11-04T14:21:11.659Z,19.95
2022-11-04T14:23:40.383Z,19.87
2022-11-04T14:26:12.980Z,19.59
2022-11-04T14:28:45.516Z,19.39
2022-11-04T14:31:17.594Z,19.48
2022-11-04T14:33:55.069Z,19.24
2022-11-04T14:36:21.664Z,19.14
2022-11-04T14:39:01.978Z,19.27
2022-11-04T14:41:28.553Z,19.39
2022-11-04T14:43:58.009Z,19.21
2022-11-04T14:46:36.782Z,19.03
2022-11-04T14:49:03.800Z,18.91
2022-11-04T14:51:33.795Z,18.91
2022-11-04T14:54:06.936Z,18.83
2022-11-04T14:56:34.143Z,18.82
2022-11-04T14:59:05.418Z,18.61
2022-11-04T15:01:35.547Z,18.58
2022-11-04T15:04:14.412Z,18.64
2022-11-04T15:06:54.370Z,18.82
2022-11-04T15:09:28.622Z,18.81
2022-11-04T15:12:36.919Z,18.69
2022-11-04T15:15:38.620Z,18.53
2022-11-04T15:18:05.358Z,18.44
2022-11-04T15:20:33.230Z,18.33
2022-11-04T15:23:03.097Z,18.22
2022-11-04T15:25:29.937Z,18.33
2022-11-04T15:27:56.963Z,18.32
2022-11-04T15:30:27.740Z,18.39
2022-11-04T15:32:57.024Z,18.56
2022-11-04T15:35:24.923Z,18.62
2022-11-04T15:37:54.189Z,18.66
2022-11-04T15:40:22.171Z,18.56
2022-11-04T15:42:50.460Z,18.48
2022-11-04T15:45:29.377Z,18.54
2022-11-04T15:48:25.100Z,18.11
2022-11-04T15:51:21.891Z,17.98
2022-11-04T15:54:23.376Z,17.70
2022-11-04T15:56:55.383Z,17.60
2022-11-04T15:59:37.264Z,17.15
2022-11-04T16:02:06.649Z,16.64
2022-11-04T16:04:33.927Z,16.82
2022-11-04T16:07:24.815Z,16.70
2022-11-04T16:09:54.484Z,16.61
2022-11-04T16:12:26.994Z,16.45
2022-11-04T16:14:58.357Z,16.25
2022-11-04T16:17:26.695Z,16.17
2022-11-04T16:19:56.668Z,16.14
2022-11-04T16:22:38.948Z,16.07
2022-11-04T16:25:11.091Z,15.94
2022-11-04T16:27:38.190Z,16.06
2022-11-04T16:30:24.932Z,16.15
2022-11-04T16:32:54.332Z,16.05
2022-11-04T16:35:25.706Z,16.28
2022-11-04T16:37:53.676Z,16.12
2022-11-04T16:40:21.748Z,15.93
2022-11-04T16:42:50.662Z,15.99
2022-11-04T16:45:40.825Z,16.09
2022-11-04T16:48:08.159Z,15.67
2022-11-04T16:50:34.947Z,15.88
2022-11-04T16:53:03.755Z,15.74
2022-11-04T16:55:31.001Z,15.76
2022-11-04T16:58:03.059Z,15.66
2022-11-04T17:00:33.035Z,15.69
2022-11-04T17:03:01.554Z,15.53
2022-11-04T17:05:28.580Z,15.51
2022-11-04T17:07:58.814Z,15.59
2022-11-04T17:10:31.668Z,15.57
2022-11-04T17:12:58.427Z,15.65
2022-11-04T17:15:25.984Z,15.65
2022-11-04T17:17:52.754Z,15.80
2022-11-04T17:20:19.654Z,15.78
2022-11-04T17:22:47.345Z,15.67
2022-11-04T17:25:20.802Z,15.63
2022-11-04T17:27:48.647Z,15.71
2022-11-04T17:30:17.380Z,15.40
2022-11-04T17:32:45.435Z,15.33
2022-11-04T17:35:13.040Z,15.30
2022-11-04T17:37:40.044Z,15.07
2022-11-04T17:40:08.951Z,15.12
2022-11-04T17:42:54.119Z,14.77
2022-11-04T17:45:22.460Z,14.37
2022-11-04T17:47:49.158Z,14.01
2022-11-04T17:50:16.059Z,13.95
2022-11-04T17:52:42.792Z,13.93
2022-11-04T17:55:15.329Z,13.73
2022-11-04T17:57:43.136Z,13.76
2022-11-04T18:00:10.636Z,13.70
2022-11-04T18:02:41.413Z,13.67
2022-11-04T18:05:08.864Z,13.65
2022-11-04T18:07:35.933Z,13.55
2022-11-04T18:10:03.384Z,13.41
2022-11-04T18:12:41.411Z,13.58
2022-11-04T18:15:14.229Z,13.55
2022-11-04T18:17:42.339Z,13.54
2022-11-04T18:20:15.330Z,13.60
2022-11-04T18:22:43.159Z,13.55
2022-11-04T18:25:10.800Z,13.58
2022-11-04T18:27:37.782Z,13.62
2022-11-04T18:30:05.178Z,13.64
2022-11-04T18:32:32.073Z,13.65
2022-11-04T18:34:58.779Z,13.72
2022-11-04T18:37:25.468Z,13.74
2022-11-04T18:39:52.195Z,13.58
2022-11-04T18:42:18.912Z,13.62
2022-11-04T18:44:45.725Z,13.47
2022-11-04T18:47:14.083Z,13.35
2022-11-04T18:49:40.934Z,13.35
2022-11-04T18:52:07.615Z,13.47
2022-11-04T18:54:34.535Z,13.36
2022-11-04T18:57:01.265Z,13.25
2022-11-04T18:59:27.977Z,13.17
2022-11-04T19:01:54.678Z,13.34
2022-11-04T19:04:21.511Z,13.30
2022-11-04T19:06:48.531Z,13.29
2022-11-04T19:12:22.160Z,13.42
2022-11-04T19:14:49.214Z,13.20
2022-11-04T19:17:15.980Z,13.08
2022-11-04T19:19:42.983Z,13.02
2022-11-04T19:22:10.315Z,13.14
2022-11-04T19:24:37.188Z,12.88
2022-11-04T19:27:04.574Z,12.89
2022-11-04T19:29:32.975Z,12.99
2022-11-04T19:32:00.584Z,12.79
2022-11-04T19:34:27.417Z,12.83
2022-11-04T19:36:54.048Z,12.84
2022-11-04T19:39:20.684Z,12.81
2022-11-04T19:42:06.098Z,12.87
2022-11-04T19:44:32.879Z,12.91
2022-11-04T19:46:59.536Z,12.83
2022-11-04T19:49:31.171Z,12.87
2022-11-04T19:51:58.687Z,12.72
2022-11-04T19:54:25.338Z,12.70
2022-11-04T19:56:52.626Z,12.64
2022-11-04T19:59:19.334Z,12.63
2022-11-04T20:01:46.115Z,12.70
2022-11-04T20:04:13.436Z,12.62
2022-11-04T20:06:40.115Z,12.79
2022-11-04T20:09:09.724Z,12.73
2022-11-04T20:11:58.171Z,12.78
2022-11-04T20:14:25.371Z,12.78
2022-11-04T20:16:52.387Z,12.90
2022-11-04T20:19:22.674Z,12.94
2022-11-04T20:21:50.038Z,12.94
2022-11-04T20:24:16.990Z,12.96
2022-11-04T20:26:44.197Z,12.91
2022-11-04T20:29:11.791Z,12.82
2022-11-04T20:31:39.602Z,12.73
2022-11-04T20:34:08.506Z,12.66
2022-11-04T20:36:36.170Z,12.66
2022-11-04T20:39:08.823Z,12.63
2022-11-04T20:41:35.540Z,12.59
2022-11-04T20:44:02.878Z,12.41
2022-11-04T20:46:30.766Z,12.53
2022-11-04T20:48:58.523Z,12.62
2022-11-04T20:51:30.760Z,12.83
2022-11-04T20:54:00.693Z,12.91
2022-11-04T20:56:29.831Z,12.89
2022-11-04T20:58:59.320Z,12.66
2022-11-04T21:01:31.431Z,12.71
2022-11-04T21:04:12.192Z,12.59
2022-11-04T21:06:39.287Z,12.39
2022-11-04T21:09:12.023Z,12.46
2022-11-04T21:11:39.747Z,12.36
2022-11-04T21:14:07.837Z,12.01
2022-11-04T21:16:35.723Z,12.02
2022-11-04T21:19:03.557Z,11.99
2022-11-04T21:21:30.503Z,11.99
2022-11-04T21:24:01.462Z,12.07
2022-11-04T21:26:29.755Z,12.18
2022-11-04T21:28:58.602Z,11.98
2022-11-04T21:31:25.613Z,12.11
2022-11-04T21:33:52.787Z,12.27
2022-11-04T21:36:20.047Z,12.28
2022-11-04T21:38:46.798Z,12.15
2022-11-04T21:41:16.897Z,11.98
2022-11-04T21:43:43.828Z,11.98
2022-11-04T21:46:13.851Z,11.86
2022-11-04T21:48:42.023Z,11.78
2022-11-04T21:51:17.167Z,11.86
2022-11-04T21:53:44.138Z,11.87
2022-11-04T21:56:23.255Z,11.88
2022-11-04T21:58:51.805Z,11.84
2022-11-04T22:01:21.725Z,11.96
2022-11-04T22:04:06.565Z,11.85
2022-11-04T22:06:35.688Z,11.79
2022-11-04T22:09:04.846Z,11.95
2022-11-04T22:11:33.161Z,11.95
2022-11-04T22:14:03.841Z,11.95
2022-11-04T22:16:33.012Z,12.07
2022-11-04T22:19:02.237Z,11.99
2022-11-04T22:21:30.030Z,12.05
2022-11-04T22:23:57.617Z,11.81
2022-11-04T22:26:29.626Z,11.88
2022-11-04T22:28:57.587Z,11.58
2022-11-04T22:31:28.109Z,11.89
2022-11-04T22:33:55.464Z,11.59
2022-11-04T22:36:26.066Z,11.43
2022-11-04T22:38:53.189Z,11.63
2022-11-04T22:41:24.361Z,11.60
2022-11-04T22:43:51.071Z,11.67
2022-11-04T22:46:24.150Z,11.49
2022-11-04T22:48:50.918Z,11.68
2022-11-04T22:51:17.607Z,11.70
2022-11-04T22:53:44.512Z,11.65
2022-11-04T22:56:14.198Z,11.58
2022-11-04T22:58:41.136Z,11.57
2022-11-04T23:01:11.122Z,11.67
2022-11-04T23:03:39.273Z,11.56
2022-11-04T23:06:07.778Z,11.62
2022-11-04T23:08:36.159Z,11.76
2022-11-04T23:11:25.863Z,12.01
2022-11-04T23:14:20.527Z,11.94
2022-11-04T23:17:09.039Z,11.99
2022-11-04T23:19:37.559Z,11.57
2022-11-04T23:22:23.239Z,11.45
2022-11-04T23:25:09.994Z,11.33
2022-11-04T23:28:02.240Z,11.40
2022-11-04T23:30:31.626Z,11.56
2022-11-04T23:33:00.924Z,11.47
2022-11-04T23:36:00.957Z,11.47
2022-11-04T23:38:31.596Z,11.45
2022-11-04T23:41:20.244Z,11.13
2022-11-04T23:43:46.884Z,11.20
2022-11-04T23:46:33.701Z,10.77
2022-11-04T23:49:20.704Z,10.96
2022-11-04T23:52:05.901Z,10.82
2022-11-04T23:54:50.954Z,10.61
2022-11-04T23:57:37.048Z,10.47
